Scotland, Texas
Current Conditions -  °F | °C
As of 5:15 AM on Sunday 23 Nov 2014 (Local Time) from KCWC Reporting Station
Clear Clear  
Wind Chill: 46°   Ceiling: Unl
Heat Index: 49°   Visibility: 10mi
Dew Point: 49°   Wind: 7mph
Humidity: 100%   Direction: 170°S
Pressure: 29.54"   Gusts: NA
Location:  33.66°N, 98.47°W
Report Text: KCWC 231115Z AUTO 17006KT 10SM CLR 10/10 A2954 RMK AO2 T00960096
Loading
Personal Weather Stations






























Interactive Weather Map New forecast layout! Learn more

10-Day Weather Forecast

Advertisements
Track Severe Weather on mobile